createdAt,value
2019-04-07T00:01:57.291Z,35.86
2019-04-07T00:04:27.217Z,36.74
2019-04-07T00:06:56.618Z,35.95
2019-04-07T00:09:25.900Z,35.60
2019-04-07T00:11:55.253Z,36.34
2019-04-07T00:14:24.840Z,35.17
2019-04-07T00:16:54.096Z,35.55
2019-04-07T00:19:23.305Z,35.82
2019-04-07T00:21:53.934Z,36.00
2019-04-07T00:24:23.154Z,35.63
2019-04-07T00:26:52.513Z,35.13
2019-04-07T00:29:21.790Z,36.61
2019-04-07T00:31:51.095Z,34.86
2019-04-07T00:34:20.601Z,33.97
2019-04-07T00:36:49.764Z,33.17
2019-04-07T00:39:19.137Z,33.33
2019-04-07T00:41:48.290Z,33.02
2019-04-07T00:44:17.647Z,32.88
2019-04-07T00:46:47.620Z,33.21
2019-04-07T00:49:16.959Z,33.37
2019-04-07T00:51:46.718Z,32.70
2019-04-07T00:54:16.064Z,31.69
2019-04-07T00:56:45.525Z,32.86
2019-04-07T00:59:15.420Z,32.40
2019-04-07T01:01:44.980Z,32.52
2019-04-07T01:04:14.269Z,31.92
2019-04-07T01:06:43.731Z,32.57
2019-04-07T01:09:13.333Z,31.93
2019-04-07T01:11:43.052Z,31.32
2019-04-07T01:14:12.425Z,31.38
2019-04-07T01:16:41.813Z,32.09
2019-04-07T01:19:11.149Z,31.61
2019-04-07T01:21:40.433Z,32.41
2019-04-07T01:24:09.890Z,32.81
2019-04-07T01:26:40.477Z,32.94
2019-04-07T01:29:10.217Z,33.29
2019-04-07T01:31:39.607Z,32.99
2019-04-07T01:34:08.841Z,33.43
2019-04-07T01:36:38.147Z,33.89
2019-04-07T01:39:08.985Z,33.87
2019-04-07T01:41:42.989Z,33.43
2019-04-07T01:44:20.186Z,33.57
2019-04-07T01:46:54.038Z,33.30
2019-04-07T01:49:31.296Z,33.19
2019-04-07T01:52:02.097Z,33.46
2019-04-07T01:54:51.027Z,33.37
2019-04-07T01:57:21.852Z,33.37
2019-04-07T01:59:58.550Z,33.32
2019-04-07T02:02:29.369Z,33.03
2019-04-07T02:05:03.420Z,33.03
2019-04-07T02:07:43.657Z,32.63
2019-04-07T02:10:15.156Z,32.45
2019-04-07T02:12:52.009Z,32.09
2019-04-07T02:15:22.926Z,33.03
2019-04-07T02:18:06.072Z,32.15
2019-04-07T02:20:47.589Z,32.52
2019-04-07T02:23:34.904Z,32.15
2019-04-07T02:26:06.048Z,31.68
2019-04-07T02:28:39.899Z,33.10
2019-04-07T02:31:19.723Z,32.46
2019-04-07T02:34:07.241Z,32.36
2019-04-07T02:36:44.249Z,33.25
2019-04-07T02:39:15.312Z,32.70
2019-04-07T02:41:46.607Z,32.59
2019-04-07T02:44:17.978Z,32.86
2019-04-07T02:46:55.068Z,32.11
2019-04-07T02:49:28.703Z,32.95
2019-04-07T02:52:00.243Z,31.58
2019-04-07T02:54:31.347Z,32.42
2019-04-07T02:57:02.455Z,32.90
2019-04-07T02:59:40.144Z,32.39
2019-04-07T03:02:21.159Z,32.37
2019-04-07T03:05:04.985Z,33.03
2019-04-07T03:07:53.112Z,33.27
2019-04-07T03:10:33.429Z,33.23
2019-04-07T03:13:10.344Z,33.33
2019-04-07T03:15:50.113Z,34.38
2019-04-07T03:18:37.423Z,35.54
2019-04-07T03:21:11.684Z,35.68
2019-04-07T03:23:45.779Z,34.31
2019-04-07T03:26:29.341Z,32.79
2019-04-07T03:29:06.299Z,32.07
2019-04-07T03:31:41.168Z,31.75
2019-04-07T03:34:24.124Z,31.34
2019-04-07T03:37:15.457Z,30.82
2019-04-07T03:39:33.330Z,31.71
2019-04-07T03:42:08.506Z,33.47
2019-04-07T03:44:56.656Z,36.69
2019-04-07T03:47:27.579Z,39.83
2019-04-07T03:49:58.391Z,41.41
2019-04-07T03:52:35.469Z,41.98
2019-04-07T03:55:11.186Z,42.82
2019-04-07T03:57:47.945Z,42.54
2019-04-07T04:01:05.102Z,41.16
2019-04-07T04:03:51.829Z,42.79
2019-04-07T04:06:32.265Z,44.16
2019-04-07T04:09:09.819Z,45.32
2019-04-07T04:11:40.923Z,44.03
2019-04-07T04:14:11.773Z,44.08
2019-04-07T04:16:42.584Z,43.83
2019-04-07T04:19:11.895Z,43.41
2019-04-07T04:21:41.214Z,42.72
2019-04-07T04:24:10.470Z,41.48
2019-04-07T04:26:40.125Z,40.59
2019-04-07T04:29:10.305Z,40.42
2019-04-07T04:31:40.315Z,39.77
2019-04-07T04:34:09.973Z,37.89
2019-04-07T04:36:40.337Z,39.24
2019-04-07T04:39:10.086Z,38.72
2019-04-07T04:41:40.504Z,40.22
2019-04-07T04:44:10.223Z,40.82
2019-04-07T04:46:39.455Z,40.65
2019-04-07T04:49:08.857Z,40.08
2019-04-07T04:51:39.378Z,39.67
2019-04-07T04:54:10.930Z,39.69
2019-04-07T04:56:40.292Z,38.76
2019-04-07T04:59:09.667Z,39.08
2019-04-07T05:01:39.718Z,39.43
2019-04-07T05:04:09.196Z,39.45
2019-04-07T05:06:39.382Z,40.45
2019-04-07T05:09:09.119Z,40.31
2019-04-07T05:11:38.581Z,39.71
2019-04-07T05:14:08.825Z,40.14
2019-04-07T05:16:39.055Z,40.44
2019-04-07T05:19:08.775Z,40.62
2019-04-07T05:21:38.241Z,40.78
2019-04-07T05:24:07.747Z,40.61
2019-04-07T05:26:37.697Z,39.99
2019-04-07T05:29:07.093Z,40.32
2019-04-07T05:31:37.041Z,40.45
2019-04-07T05:34:06.654Z,40.57
2019-04-07T05:36:37.953Z,40.30
2019-04-07T05:39:08.639Z,40.51
2019-04-07T05:41:38.471Z,40.45
2019-04-07T05:44:07.981Z,40.33
2019-04-07T05:46:40.380Z,40.00
2019-04-07T05:49:08.493Z,40.17
2019-04-07T05:51:37.872Z,38.82
2019-04-07T05:54:07.272Z,38.41
2019-04-07T05:56:37.015Z,38.13
2019-04-07T05:59:09.822Z,37.88
2019-04-07T06:01:37.545Z,37.80
2019-04-07T06:04:07.614Z,38.86
2019-04-07T06:06:39.957Z,37.78
2019-04-07T06:09:09.441Z,37.72
2019-04-07T06:11:38.846Z,36.87
2019-04-07T06:14:08.300Z,37.76
2019-04-07T06:16:37.824Z,39.26
2019-04-07T06:19:07.999Z,39.14
2019-04-07T06:21:38.647Z,38.45
2019-04-07T06:24:08.209Z,37.54
2019-04-07T06:26:40.891Z,38.88
2019-04-07T06:29:08.560Z,36.33
2019-04-07T06:31:38.152Z,36.90
2019-04-07T06:34:10.097Z,35.60
2019-04-07T06:36:38.665Z,36.25
2019-04-07T06:39:09.305Z,37.63
2019-04-07T06:41:39.023Z,37.96
2019-04-07T06:44:13.313Z,38.64
2019-04-07T06:46:52.927Z,38.73
2019-04-07T06:49:27.554Z,40.03
2019-04-07T06:52:04.653Z,42.38
2019-04-07T06:54:38.802Z,44.47
2019-04-07T06:57:25.462Z,44.91
2019-04-07T06:59:56.767Z,45.41
2019-04-07T07:02:31.787Z,45.66
2019-04-07T07:05:12.019Z,46.03
2019-04-07T07:07:41.585Z,46.22
2019-04-07T07:10:25.894Z,46.48
2019-04-07T07:13:11.545Z,45.99
2019-04-07T07:15:39.689Z,46.73
2019-04-07T07:18:11.366Z,46.62
2019-04-07T07:20:42.708Z,46.62
2019-04-07T07:23:14.964Z,46.19
2019-04-07T07:25:45.376Z,46.81
2019-04-07T07:28:17.291Z,47.29
2019-04-07T07:30:49.779Z,46.81
2019-04-07T07:33:18.198Z,45.37
2019-04-07T07:35:49.221Z,45.72
2019-04-07T07:38:19.169Z,45.69
2019-04-07T07:40:49.362Z,46.62
2019-04-07T07:43:19.849Z,46.93
2019-04-07T07:45:49.226Z,46.08
2019-04-07T07:48:18.550Z,45.46
2019-04-07T07:50:48.651Z,45.64
2019-04-07T07:53:19.199Z,44.94
2019-04-07T07:55:49.673Z,46.95
2019-04-07T07:58:19.420Z,47.00
2019-04-07T08:00:48.845Z,46.97
2019-04-07T08:03:22.654Z,47.02
2019-04-07T08:05:51.168Z,45.76
2019-04-07T08:08:21.186Z,46.22
2019-04-07T08:10:51.710Z,44.86
2019-04-07T08:13:21.317Z,43.92
2019-04-07T08:15:51.347Z,44.04
2019-04-07T08:18:21.584Z,42.77
2019-04-07T08:20:51.277Z,42.23
2019-04-07T08:23:20.965Z,40.75
2019-04-07T08:25:53.488Z,38.60
2019-04-07T08:28:21.685Z,37.20
2019-04-07T08:30:51.336Z,35.52
2019-04-07T08:33:20.734Z,34.09
2019-04-07T08:35:50.239Z,32.56
2019-04-07T08:38:23.545Z,32.26
2019-04-07T08:40:52.042Z,31.95
2019-04-07T08:43:23.369Z,31.30
2019-04-07T08:45:53.638Z,30.70
2019-04-07T08:48:23.019Z,30.40
2019-04-07T08:50:52.852Z,29.59
2019-04-07T08:53:22.916Z,28.77
2019-04-07T08:55:54.740Z,30.26
2019-04-07T08:58:27.319Z,29.97
2019-04-07T09:00:56.208Z,31.36
2019-04-07T09:03:25.451Z,30.26
2019-04-07T09:05:57.428Z,29.38
2019-04-07T09:08:26.173Z,27.96
2019-04-07T09:11:00.157Z,26.20
2019-04-07T09:13:31.628Z,25.29
2019-04-07T09:16:16.209Z,25.24
2019-04-07T09:19:00.595Z,24.37
2019-04-07T09:21:38.181Z,24.08
2019-04-07T09:24:07.208Z,24.29
2019-04-07T09:26:42.819Z,24.00
2019-04-07T09:29:31.229Z,24.29
2019-04-07T09:32:08.417Z,22.65
2019-04-07T09:34:56.248Z,21.91
2019-04-07T09:37:44.517Z,21.06
2019-04-07T09:40:30.311Z,22.14
2019-04-07T09:43:18.670Z,22.45
2019-04-07T09:46:00.490Z,23.22
2019-04-07T09:48:32.071Z,22.87
2019-04-07T09:51:06.932Z,21.03
2019-04-07T09:53:48.770Z,21.20
2019-04-07T09:56:21.853Z,21.75
2019-04-07T09:58:58.812Z,21.55
2019-04-07T10:01:38.939Z,21.55
2019-04-07T10:04:25.977Z,21.29
2019-04-07T10:07:09.223Z,20.79
2019-04-07T10:10:05.496Z,21.04
2019-04-07T10:12:33.499Z,20.75
2019-04-07T10:15:12.732Z,20.69
2019-04-07T10:17:52.427Z,20.09
2019-04-07T10:20:26.125Z,19.99
2019-04-07T10:23:09.438Z,20.29
2019-04-07T10:25:52.476Z,19.18
2019-04-07T10:28:23.446Z,19.67
2019-04-07T10:31:03.448Z,18.76
2019-04-07T10:33:47.107Z,19.40
2019-04-07T10:36:18.426Z,19.54
2019-04-07T10:39:06.173Z,19.53
2019-04-07T10:41:49.643Z,19.43
2019-04-07T10:44:37.735Z,20.96
2019-04-07T10:47:11.908Z,20.08
2019-04-07T10:50:05.213Z,19.38
2019-04-07T10:52:41.184Z,19.64
2019-04-07T10:55:17.967Z,19.86
2019-04-07T10:58:00.943Z,19.77
2019-04-07T11:00:31.774Z,20.21
2019-04-07T11:03:03.144Z,22.11
2019-04-07T11:05:34.056Z,22.98
2019-04-07T11:08:11.644Z,23.21
2019-04-07T11:10:43.094Z,22.33
2019-04-07T11:13:15.675Z,23.00
2019-04-07T11:16:05.047Z,22.72
2019-04-07T11:18:45.074Z,22.75
2019-04-07T11:21:24.918Z,22.89
2019-04-07T11:23:58.963Z,22.55
2019-04-07T11:26:45.859Z,22.65
2019-04-07T11:29:16.679Z,23.87
2019-04-07T11:31:48.376Z,24.77
2019-04-07T11:34:22.679Z,24.66
2019-04-07T11:37:11.058Z,24.28
2019-04-07T11:39:42.537Z,24.08
2019-04-07T11:42:14.114Z,23.71
2019-04-07T11:44:57.544Z,23.23
2019-04-07T11:47:31.759Z,22.41
2019-04-07T11:50:12.462Z,23.97
2019-04-07T11:52:46.294Z,23.89
2019-04-07T11:55:17.376Z,23.92
2019-04-07T11:58:06.367Z,23.21
2019-04-07T12:00:27.032Z,23.46
2019-04-07T12:03:03.946Z,23.41
2019-04-07T12:05:34.876Z,23.28
2019-04-07T12:08:25.090Z,23.07
2019-04-07T12:11:04.990Z,22.90
2019-04-07T12:13:35.032Z,23.31
2019-04-07T12:16:21.947Z,24.29
2019-04-07T12:19:09.463Z,24.58
2019-04-07T12:21:43.767Z,25.72
2019-04-07T12:24:26.486Z,27.28
2019-04-07T12:26:56.615Z,27.19
2019-04-07T12:29:28.701Z,26.18
2019-04-07T12:31:59.782Z,27.21
2019-04-07T12:34:48.983Z,26.68
2019-04-07T12:37:20.635Z,26.52
2019-04-07T12:39:52.286Z,24.45
2019-04-07T12:42:23.436Z,23.60
2019-04-07T12:45:11.161Z,23.59
2019-04-07T12:47:44.997Z,25.44
2019-04-07T12:50:20.563Z,26.09
2019-04-07T12:53:09.836Z,25.92
2019-04-07T12:55:59.883Z,24.82
2019-04-07T12:58:35.557Z,24.18
2019-04-07T13:01:19.875Z,24.45
2019-04-07T13:04:07.108Z,24.09
2019-04-07T13:06:49.912Z,24.60
2019-04-07T13:09:27.786Z,24.18
2019-04-07T13:11:57.020Z,24.09
2019-04-07T13:14:28.975Z,22.58
2019-04-07T13:17:04.131Z,23.52
2019-04-07T13:19:38.541Z,23.73
2019-04-07T13:22:21.565Z,23.64
2019-04-07T13:24:57.805Z,23.73
2019-04-07T13:27:32.641Z,23.32
2019-04-07T13:30:12.804Z,24.04
2019-04-07T13:32:46.890Z,24.19
2019-04-07T13:35:19.296Z,23.36
2019-04-07T13:37:50.179Z,22.89
2019-04-07T13:40:27.147Z,22.39
2019-04-07T13:43:14.536Z,22.66
2019-04-07T13:45:47.009Z,22.63
2019-04-07T13:48:20.014Z,23.68
2019-04-07T13:50:54.454Z,23.87
2019-04-07T13:53:30.580Z,23.40
2019-04-07T13:56:01.701Z,23.12
2019-04-07T13:58:45.464Z,22.52
2019-04-07T14:01:18.588Z,22.27
2019-04-07T14:03:52.271Z,21.87
2019-04-07T14:06:27.286Z,22.52
2019-04-07T14:09:10.402Z,22.89
2019-04-07T14:12:05.096Z,22.65
2019-04-07T14:14:38.304Z,24.13
2019-04-07T14:17:18.408Z,24.19
2019-04-07T14:19:49.852Z,24.83
2019-04-07T14:22:33.202Z,25.45
2019-04-07T14:25:07.922Z,26.57
2019-04-07T14:27:39.635Z,25.89
2019-04-07T14:30:11.434Z,26.68
2019-04-07T14:32:49.784Z,27.54
2019-04-07T14:35:20.830Z,27.88
2019-04-07T14:37:54.761Z,26.46
2019-04-07T14:40:40.992Z,25.34
2019-04-07T14:43:28.272Z,25.00
2019-04-07T14:46:16.202Z,23.73
2019-04-07T14:49:02.350Z,23.98
2019-04-07T14:51:36.215Z,23.97
2019-04-07T14:54:23.386Z,23.94
2019-04-07T14:57:10.469Z,24.21
2019-04-07T14:59:44.957Z,23.85
2019-04-07T15:02:15.837Z,23.87
2019-04-07T15:04:46.740Z,24.04
2019-04-07T15:07:29.978Z,24.11
2019-04-07T15:10:16.551Z,23.94
2019-04-07T15:12:46.099Z,23.68
2019-04-07T15:15:17.035Z,23.69
2019-04-07T15:17:46.535Z,23.43
2019-04-07T15:20:16.064Z,23.24
2019-04-07T15:22:47.259Z,22.49
2019-04-07T15:25:16.397Z,23.21
2019-04-07T15:27:45.677Z,23.05
2019-04-07T15:30:16.529Z,22.80
2019-04-07T15:32:46.073Z,23.02
2019-04-07T15:35:16.306Z,22.80
2019-04-07T15:37:46.621Z,22.37
2019-04-07T15:40:15.959Z,23.14
2019-04-07T15:42:50.046Z,22.93
2019-04-07T15:45:16.307Z,22.89
2019-04-07T15:47:45.519Z,22.61
2019-04-07T15:50:15.948Z,22.97
2019-04-07T15:52:46.987Z,23.07
2019-04-07T15:55:16.830Z,23.15
2019-04-07T15:57:46.237Z,23.50
2019-04-07T16:00:16.435Z,26.75
2019-04-07T16:02:46.107Z,28.78
2019-04-07T16:05:15.941Z,29.39
2019-04-07T16:07:46.597Z,29.84
2019-04-07T16:10:18.693Z,30.99
2019-04-07T16:12:51.084Z,31.18
2019-04-07T16:15:18.512Z,30.43
2019-04-07T16:17:49.099Z,31.20
2019-04-07T16:20:22.951Z,31.50
2019-04-07T16:22:51.433Z,31.50
2019-04-07T16:25:26.196Z,31.18
2019-04-07T16:27:51.654Z,31.34
2019-04-07T16:30:21.564Z,31.28
2019-04-07T16:32:50.896Z,29.81
2019-04-07T16:35:20.343Z,29.89
2019-04-07T16:37:49.537Z,30.68
2019-04-07T16:40:19.585Z,29.64
2019-04-07T16:43:04.389Z,29.99
2019-04-07T16:45:19.881Z,29.85
2019-04-07T16:47:49.891Z,29.56
2019-04-07T16:50:20.650Z,29.96
2019-04-07T16:52:50.241Z,29.37
2019-04-07T16:55:40.260Z,29.13
2019-04-07T16:58:14.259Z,28.00
2019-04-07T17:00:43.718Z,27.57
2019-04-07T17:03:13.229Z,27.30
2019-04-07T17:05:43.077Z,27.06
2019-04-07T17:08:12.847Z,26.80
2019-04-07T17:10:42.447Z,26.69
2019-04-07T17:13:18.670Z,26.68
2019-04-07T17:15:43.183Z,26.66
2019-04-07T17:18:34.458Z,26.79
2019-04-07T17:21:08.668Z,26.77
2019-04-07T17:23:38.612Z,26.83
2019-04-07T17:26:11.746Z,27.19
2019-04-07T17:28:44.617Z,27.16
2019-04-07T17:31:11.813Z,26.76
2019-04-07T17:33:41.949Z,27.57
2019-04-07T17:36:15.363Z,27.65
2019-04-07T17:38:44.286Z,27.82
2019-04-07T17:41:15.614Z,28.02
2019-04-07T17:43:55.304Z,28.30
2019-04-07T17:46:28.618Z,28.58
2019-04-07T17:48:59.826Z,28.61
2019-04-07T17:51:43.858Z,29.23
2019-04-07T17:54:21.314Z,29.40
2019-04-07T17:57:08.821Z,29.57
2019-04-07T17:59:56.112Z,29.86
2019-04-07T18:02:33.867Z,30.22
2019-04-07T18:05:25.243Z,30.51
2019-04-07T18:08:01.818Z,30.53
2019-04-07T18:10:32.925Z,30.81
2019-04-07T18:13:24.751Z,31.03
2019-04-07T18:16:12.158Z,31.13
2019-04-07T18:18:43.206Z,31.39
2019-04-07T18:21:18.911Z,31.42
2019-04-07T18:24:05.988Z,31.55
2019-04-07T18:26:41.758Z,31.99
2019-04-07T18:29:15.464Z,32.05
2019-04-07T18:31:46.295Z,31.97
2019-04-07T18:34:23.954Z,32.23
2019-04-07T18:36:52.523Z,32.40
2019-04-07T18:39:27.640Z,32.55
2019-04-07T18:42:17.773Z,32.76
2019-04-07T18:44:47.598Z,32.89
2019-04-07T18:47:33.721Z,32.84
2019-04-07T18:50:13.679Z,32.77
2019-04-07T18:53:01.588Z,32.94
2019-04-07T18:55:35.350Z,33.88
2019-04-07T18:58:21.347Z,33.83
2019-04-07T19:00:52.233Z,33.95
2019-04-07T19:03:29.694Z,33.82
2019-04-07T19:06:12.756Z,34.02
2019-04-07T19:08:49.405Z,33.95
2019-04-07T19:11:19.159Z,33.82
2019-04-07T19:14:20.381Z,33.93
2019-04-07T19:16:31.905Z,34.00
2019-04-07T19:19:11.602Z,34.22
2019-04-07T19:22:00.904Z,34.40
2019-04-07T19:24:48.011Z,34.92
2019-04-07T19:27:35.318Z,35.14
2019-04-07T19:30:14.472Z,35.00
2019-04-07T19:32:44.448Z,34.56
2019-04-07T19:35:18.594Z,34.28
2019-04-07T19:38:08.062Z,34.55
2019-04-07T19:40:59.320Z,34.78
2019-04-07T19:43:43.529Z,35.08
2019-04-07T19:46:15.797Z,35.20
2019-04-07T19:48:52.409Z,35.66
2019-04-07T19:51:32.008Z,35.99
2019-04-07T19:54:06.509Z,35.87
2019-04-07T19:56:43.669Z,35.84
2019-04-07T19:59:17.533Z,35.67
2019-04-07T20:02:07.471Z,35.82
2019-04-07T20:04:44.175Z,35.91
2019-04-07T20:07:20.210Z,35.45
2019-04-07T20:10:09.238Z,35.53
2019-04-07T20:12:54.925Z,35.54
2019-04-07T20:15:43.135Z,35.79
2019-04-07T20:18:26.923Z,35.98
2019-04-07T20:21:03.005Z,36.08
2019-04-07T20:23:34.471Z,35.84
2019-04-07T20:26:05.873Z,36.18
2019-04-07T20:28:36.798Z,36.24
2019-04-07T20:31:13.129Z,36.26
2019-04-07T20:33:46.963Z,35.87
2019-04-07T20:36:29.796Z,35.77
2019-04-07T20:39:07.226Z,36.34
2019-04-07T20:41:43.145Z,36.52
2019-04-07T20:44:33.884Z,36.10
2019-04-07T20:47:08.751Z,36.31
2019-04-07T20:49:41.580Z,36.07
2019-04-07T20:52:28.370Z,36.35
2019-04-07T20:55:04.809Z,36.65
2019-04-07T20:57:37.224Z,36.57
2019-04-07T21:00:14.357Z,36.58
2019-04-07T21:02:48.733Z,36.27
2019-04-07T21:05:22.588Z,35.97
2019-04-07T21:08:04.180Z,36.41
2019-04-07T21:10:50.010Z,36.02
2019-04-07T21:13:36.298Z,36.23
2019-04-07T21:16:08.202Z,36.26
2019-04-07T21:18:45.389Z,36.07
2019-04-07T21:21:33.102Z,36.25
2019-04-07T21:24:04.559Z,36.07
2019-04-07T21:26:41.240Z,36.64
2019-04-07T21:29:12.922Z,36.70
2019-04-07T21:31:46.551Z,36.27
2019-04-07T21:34:16.564Z,36.22
2019-04-07T21:36:56.014Z,36.23
2019-04-07T21:39:33.147Z,36.17
2019-04-07T21:42:22.062Z,36.29
2019-04-07T21:44:53.069Z,36.40
2019-04-07T21:47:31.018Z,36.25
2019-04-07T21:50:15.099Z,36.14
2019-04-07T21:52:46.214Z,36.49
2019-04-07T21:55:17.042Z,36.13
2019-04-07T21:57:57.130Z,36.52
2019-04-07T22:00:43.340Z,37.47
2019-04-07T22:03:29.565Z,38.46
2019-04-07T22:06:17.626Z,37.84
2019-04-07T22:08:51.901Z,38.00
2019-04-07T22:11:24.727Z,37.16
2019-04-07T22:13:53.318Z,37.17
2019-04-07T22:16:24.274Z,37.51
2019-04-07T22:18:53.833Z,37.57
2019-04-07T22:21:24.233Z,37.13
2019-04-07T22:23:58.293Z,37.17
2019-04-07T22:26:27.636Z,37.71
2019-04-07T22:29:01.212Z,38.25
2019-04-07T22:31:29.838Z,38.39
2019-04-07T22:34:01.006Z,37.57
2019-04-07T22:36:29.989Z,37.40
2019-04-07T22:39:02.082Z,37.38
2019-04-07T22:41:30.293Z,38.13
2019-04-07T22:43:59.638Z,37.74
2019-04-07T22:46:29.092Z,37.93
2019-04-07T22:48:59.406Z,37.30
2019-04-07T22:51:28.937Z,37.87
2019-04-07T22:53:58.941Z,37.07
2019-04-07T22:56:28.286Z,36.96
2019-04-07T22:58:57.481Z,37.09
2019-04-07T23:01:27.209Z,37.96
2019-04-07T23:03:58.018Z,37.85
2019-04-07T23:06:27.311Z,38.68
2019-04-07T23:08:57.353Z,39.04
2019-04-07T23:11:26.710Z,38.53
2019-04-07T23:13:56.027Z,38.44
2019-04-07T23:16:25.318Z,37.81
2019-04-07T23:18:54.495Z,37.81
2019-04-07T23:21:24.655Z,38.22
2019-04-07T23:23:53.861Z,37.38
2019-04-07T23:26:23.098Z,37.18
2019-04-07T23:28:52.416Z,37.17
2019-04-07T23:31:21.987Z,37.70
2019-04-07T23:33:51.239Z,37.29
2019-04-07T23:36:20.963Z,37.16
2019-04-07T23:38:50.143Z,36.72
2019-04-07T23:41:20.184Z,36.80
2019-04-07T23:43:50.504Z,36.74
2019-04-07T23:46:24.725Z,36.90
2019-04-07T23:48:51.766Z,37.06
2019-04-07T23:51:21.099Z,37.09
2019-04-07T23:54:11.021Z,37.34
2019-04-07T23:56:41.505Z,38.16
2019-04-07T23:59:11.039Z,38.22
